Celebrity Silhouette — 9HA2583 — position and weather

sailwx.info

Track history (hours):
 
Tides and Currents Weather Stations Pressure Air Temp Water Temp Dewpoint Dewpoint Depression Visibility Wind Speed Wind Dir Waves Ship Positions

Celebrity Silhouette

Last reported at 2017-Jan-19 23:33 UTC. Time now 2017-Jan-21 04:28 UTC.
Position N 26°10' W 079°33'.

Length 319 m; draft 8.6 m.

Type: Passenger vessel. MMSI: 248939000.

Date/timePositionNaut miles runAvg speedWind from/ knotsBaromVisibWave heightAir tempDewpointWater temp
2017-Jan-19 23:33N 26°10' W 079°33'1615.6
2017-Jan-19 22:33N 26°08' W 079°50'1414.1
2017-Jan-19 21:33N 26°06' W 080°06'1 1.2
2017-Jan-19 20:32N 26°05' W 080°07'0 0.0
2017-Jan-19 19:32N 26°05' W 080°07'0 0.0
2017-Jan-19 18:32N 26°05' W 080°07'0 0.0
2017-Jan-19 17:32N 26°05' W 080°07'0 0.0
2017-Jan-19 16:26N 26°05' W 080°07'0 0.0
2017-Jan-19 15:32N 26°05' W 080°07'0 0.0
2017-Jan-19 14:32N 26°05' W 080°07'0 0.0
2017-Jan-19 13:32N 26°05' W 080°07'0 0.0
2017-Jan-19 12:29N 26°05' W 080°07'0 0.0
2017-Jan-19 11:33N 26°05' W 080°07'4 4.3
2017-Jan-19 10:33N 26°06' W 080°02'1716.7
2017-Jan-19 09:33N 25°50' W 079°57'1918.8
2017-Jan-19 08:33N 25°31' W 079°58'  
2017-Jan-15 09:00N 20°06' W 072°36'50313.8 090 / 201020.010.8 25.022.226.0
2017-Jan-13 20:33N 25°18' W 079°43'1413.8
2017-Jan-13 19:34N 25°32' W 079°47'1313.0
2017-Jan-13 18:34N 25°44' W 079°52'1212.4
2017-Jan-13 17:33N 25°55' W 079°57'1212.2
2017-Jan-13 16:33N 26°05' W 080°05'2 2.1
2017-Jan-13 15:31N 26°05' W 080°07'0 0.0
2017-Jan-13 14:31N 26°05' W 080°07'0 0.0
2017-Jan-13 13:31N 26°05' W 080°07'0 0.0
2017-Jan-13 12:31N 26°05' W 080°07'0 0.0
2017-Jan-13 11:31N 26°05' W 080°07'0 0.0
2017-Jan-13 10:31N 26°05' W 080°07'0 0.0
2017-Jan-13 09:31N 26°05' W 080°07'0 0.0
2017-Jan-13 08:31N 26°05' W 080°07'0 0.0
2017-Jan-13 07:28N 26°05' W 080°07'0 0.0
2017-Jan-13 06:28N 26°05' W 080°07'0 0.0
2017-Jan-13 05:28N 26°05' W 080°07'0 0.0
2017-Jan-13 04:28N 26°05' W 080°07'0 0.0
2017-Jan-13 03:31N 26°05' W 080°07'0 0.0
2017-Jan-13 02:31N 26°05' W 080°07'0 0.0
2017-Jan-13 01:31N 26°05' W 080°07'0 0.0
2017-Jan-13 00:31N 26°05' W 080°07'0 0.0
2017-Jan-12 23:31N 26°05' W 080°07'0 0.0
2017-Jan-12 22:31N 26°05' W 080°07'0 0.0
2017-Jan-12 21:31N 26°05' W 080°07'0 0.0
2017-Jan-12 20:31N 26°05' W 080°07'0 0.0
2017-Jan-12 19:31N 26°05' W 080°07'0 0.0
2017-Jan-12 18:31N 26°05' W 080°07'0 0.0
2017-Jan-12 17:22N 26°05' W 080°07'0 0.0
2017-Jan-12 16:31N 26°05' W 080°07'0 0.0
2017-Jan-12 15:25N 26°05' W 080°07'0 0.0
2017-Jan-12 14:28N 26°05' W 080°07'0 0.0
2017-Jan-12 13:28N 26°05' W 080°07'0 0.0
2017-Jan-12 12:31N 26°05' W 080°07'1 0.6
2017-Jan-12 11:33N 26°06' W 080°07'9 9.5
2017-Jan-12 10:33N 26°01' W 079°58'1515.1
2017-Jan-12 09:34N 25°46' W 079°56'1414.1
2017-Jan-12 08:33N 25°32' W 079°56'1414.0
2017-Jan-12 07:33N 25°18' W 079°58'46714.9
2017-Jan-11 00:18N 20°41' W 086°47'1216.7
2017-Jan-10 23:34N 20°35' W 086°58'6 6.1
2017-Jan-10 22:31N 20°29' W 086°59'0 0.0
2017-Jan-10 21:31N 20°29' W 086°59'0 0.0
2017-Jan-10 20:31N 20°29' W 086°59'0 0.0
2017-Jan-10 19:31N 20°29' W 086°59'0 0.0
2017-Jan-10 18:31N 20°29' W 086°59'0 0.0
2017-Jan-10 17:33N 20°29' W 086°59'0 0.0
2017-Jan-10 16:33N 20°29' W 086°59'0 0.0
2017-Jan-10 15:33N 20°29' W 086°59'0 0.0
2017-Jan-10 14:33N 20°29' W 086°59'0 0.0
2017-Jan-10 13:33N 20°29' W 086°59'0 0.0
2017-Jan-10 12:33N 20°29' W 086°59'6 6.2
2017-Jan-10 11:33N 20°35' W 086°57'  
Track history (hours):
 
Tides and Currents Weather Stations Pressure Air Temp Water Temp Dewpoint Dewpoint Depression Visibility Wind Speed Wind Dir Waves Ship Positions

Celebrity Silhouette

Last reported at 2017-Jan-19 23:33 UTC. Time now 2017-Jan-21 04:28 UTC.
Position N 26°10' W 079°33'.

Length 319 m; draft 8.6 m.

Type: Passenger vessel. MMSI: 248939000.

Date/timePositionNaut miles runAvg speedWind from/ knotsBaromVisibWave heightAir tempDewpointWater temp
2017-Jan-19 23:33N 26°10' W 079°33'1615.6
2017-Jan-19 22:33N 26°08' W 079°50'1414.1
2017-Jan-19 21:33N 26°06' W 080°06'1 1.2
2017-Jan-19 20:32N 26°05' W 080°07'0 0.0
2017-Jan-19 19:32N 26°05' W 080°07'0 0.0
2017-Jan-19 18:32N 26°05' W 080°07'0 0.0
2017-Jan-19 17:32N 26°05' W 080°07'0 0.0
2017-Jan-19 16:26N 26°05' W 080°07'0 0.0
2017-Jan-19 15:32N 26°05' W 080°07'0 0.0
2017-Jan-19 14:32N 26°05' W 080°07'0 0.0
2017-Jan-19 13:32N 26°05' W 080°07'0 0.0
2017-Jan-19 12:29N 26°05' W 080°07'0 0.0
2017-Jan-19 11:33N 26°05' W 080°07'4 4.3
2017-Jan-19 10:33N 26°06' W 080°02'1716.7
2017-Jan-19 09:33N 25°50' W 079°57'1918.8
2017-Jan-19 08:33N 25°31' W 079°58'  
2017-Jan-15 09:00N 20°06' W 072°36'50313.8 090 / 201020.010.8 25.022.226.0
2017-Jan-13 20:33N 25°18' W 079°43'1413.8
2017-Jan-13 19:34N 25°32' W 079°47'1313.0
2017-Jan-13 18:34N 25°44' W 079°52'1212.4
2017-Jan-13 17:33N 25°55' W 079°57'1212.2
2017-Jan-13 16:33N 26°05' W 080°05'2 2.1
2017-Jan-13 15:31N 26°05' W 080°07'0 0.0
2017-Jan-13 14:31N 26°05' W 080°07'0 0.0
2017-Jan-13 13:31N 26°05' W 080°07'0 0.0
2017-Jan-13 12:31N 26°05' W 080°07'0 0.0
2017-Jan-13 11:31N 26°05' W 080°07'0 0.0
2017-Jan-13 10:31N 26°05' W 080°07'0 0.0
2017-Jan-13 09:31N 26°05' W 080°07'0 0.0
2017-Jan-13 08:31N 26°05' W 080°07'0 0.0
2017-Jan-13 07:28N 26°05' W 080°07'0 0.0
2017-Jan-13 06:28N 26°05' W 080°07'0 0.0
2017-Jan-13 05:28N 26°05' W 080°07'0 0.0
2017-Jan-13 04:28N 26°05' W 080°07'0 0.0
2017-Jan-13 03:31N 26°05' W 080°07'0 0.0
2017-Jan-13 02:31N 26°05' W 080°07'0 0.0
2017-Jan-13 01:31N 26°05' W 080°07'0 0.0
2017-Jan-13 00:31N 26°05' W 080°07'0 0.0
2017-Jan-12 23:31N 26°05' W 080°07'0 0.0
2017-Jan-12 22:31N 26°05' W 080°07'0 0.0
2017-Jan-12 21:31N 26°05' W 080°07'0 0.0
2017-Jan-12 20:31N 26°05' W 080°07'0 0.0
2017-Jan-12 19:31N 26°05' W 080°07'0 0.0
2017-Jan-12 18:31N 26°05' W 080°07'0 0.0
2017-Jan-12 17:22N 26°05' W 080°07'0 0.0
2017-Jan-12 16:31N 26°05' W 080°07'0 0.0
2017-Jan-12 15:25N 26°05' W 080°07'0 0.0
2017-Jan-12 14:28N 26°05' W 080°07'0 0.0
2017-Jan-12 13:28N 26°05' W 080°07'0 0.0
2017-Jan-12 12:31N 26°05' W 080°07'1 0.6
2017-Jan-12 11:33N 26°06' W 080°07'9 9.5
2017-Jan-12 10:33N 26°01' W 079°58'1515.1
2017-Jan-12 09:34N 25°46' W 079°56'1414.1
2017-Jan-12 08:33N 25°32' W 079°56'1414.0
2017-Jan-12 07:33N 25°18' W 079°58'46714.9
2017-Jan-11 00:18N 20°41' W 086°47'1216.7
2017-Jan-10 23:34N 20°35' W 086°58'6 6.1
2017-Jan-10 22:31N 20°29' W 086°59'0 0.0
2017-Jan-10 21:31N 20°29' W 086°59'0 0.0
2017-Jan-10 20:31N 20°29' W 086°59'0 0.0
2017-Jan-10 19:31N 20°29' W 086°59'0 0.0
2017-Jan-10 18:31N 20°29' W 086°59'0 0.0
2017-Jan-10 17:33N 20°29' W 086°59'0 0.0
2017-Jan-10 16:33N 20°29' W 086°59'0 0.0
2017-Jan-10 15:33N 20°29' W 086°59'0 0.0
2017-Jan-10 14:33N 20°29' W 086°59'0 0.0
2017-Jan-10 13:33N 20°29' W 086°59'0 0.0
2017-Jan-10 12:33N 20°29' W 086°59'6 6.2
2017-Jan-10 11:33N 20°35' W 086°57'  

Dump ship's entire track history